createdAt,value
2023-03-24T00:01:27.519Z,1006.98
2023-03-24T00:11:27.721Z,1006.88
2023-03-24T00:21:27.950Z,1006.91
2023-03-24T00:31:28.201Z,1006.98
2023-03-24T00:41:28.392Z,1007.02
2023-03-24T00:51:28.598Z,1007.35
2023-03-24T01:01:28.817Z,1007.47
2023-03-24T01:11:29.020Z,1007.47
2023-03-24T01:21:29.261Z,1007.19
2023-03-24T01:31:29.494Z,1006.97
2023-03-24T01:41:29.660Z,1006.80
2023-03-24T01:51:29.863Z,1006.90
2023-03-24T02:01:30.151Z,1006.92
2023-03-24T02:11:30.166Z,1006.92
2023-03-24T02:21:30.372Z,1006.60
2023-03-24T02:31:30.629Z,1006.56
2023-03-24T02:41:30.777Z,1006.35
2023-03-24T02:51:31.019Z,1006.27
2023-03-24T03:01:31.287Z,1006.23
2023-03-24T03:11:31.308Z,1006.27
2023-03-24T03:21:31.512Z,1006.28
2023-03-24T03:31:31.750Z,1006.40
2023-03-24T03:41:31.805Z,1006.45
2023-03-24T03:51:32.003Z,1006.35
2023-03-24T04:01:32.224Z,1005.54
2023-03-24T04:11:32.440Z,1005.53
2023-03-24T04:21:32.623Z,1005.67
2023-03-24T04:31:32.859Z,1005.70
2023-03-24T04:41:33.036Z,1005.36
2023-03-24T04:51:33.227Z,1005.23
2023-03-24T05:01:33.486Z,1005.31
2023-03-24T05:11:33.649Z,1005.41
2023-03-24T05:21:33.927Z,1005.40
2023-03-24T05:31:34.065Z,1005.40
2023-03-24T05:41:34.256Z,1005.70
2023-03-24T05:51:34.344Z,1005.99
2023-03-24T06:01:34.543Z,1006.49
2023-03-24T06:11:34.738Z,1006.75
2023-03-24T06:21:35.428Z,1006.72
2023-03-24T06:31:35.091Z,1006.72
2023-03-24T06:41:35.263Z,1006.70
2023-03-24T06:51:35.454Z,1006.78
2023-03-24T07:01:35.662Z,1006.82
2023-03-24T07:11:35.848Z,1006.86
2023-03-24T07:21:36.035Z,1006.93
2023-03-24T07:31:36.265Z,1007.07
2023-03-24T07:41:36.559Z,1007.23
2023-03-24T07:51:39.405Z,1007.31
2023-03-24T08:01:36.880Z,1007.44
2023-03-24T08:11:36.909Z,1007.58
2023-03-24T08:21:37.102Z,1007.67
2023-03-24T08:31:37.296Z,1007.67
2023-03-24T08:41:37.526Z,1007.83
2023-03-24T08:51:37.724Z,1008.40
2023-03-24T09:01:38.073Z,1008.52
2023-03-24T09:11:38.747Z,1008.50
2023-03-24T09:21:38.138Z,1009.08
2023-03-24T09:31:38.343Z,1009.08
2023-03-24T09:41:38.496Z,1008.81
2023-03-24T09:51:38.686Z,1008.32
2023-03-24T10:01:38.900Z,1008.21
2023-03-24T10:11:39.100Z,1008.14
2023-03-24T10:21:39.296Z,1008.13
2023-03-24T10:31:39.525Z,1008.16
2023-03-24T10:41:39.676Z,1008.07
2023-03-24T10:51:39.885Z,1008.17
2023-03-24T11:01:40.132Z,1008.45
2023-03-24T11:11:40.277Z,1008.52
2023-03-24T11:21:40.504Z,1008.51
2023-03-24T11:31:40.695Z,1008.51
2023-03-24T11:41:40.924Z,1008.29
2023-03-24T11:51:41.245Z,1008.31
2023-03-24T12:01:41.261Z,1008.26
2023-03-24T12:11:41.479Z,1008.40
2023-03-24T12:21:41.696Z,1008.22
2023-03-24T12:31:41.956Z,1008.21
2023-03-24T12:41:42.147Z,1008.20
2023-03-24T12:51:42.370Z,1007.93
2023-03-24T13:01:42.584Z,1007.87
2023-03-24T13:11:42.812Z,1007.91
2023-03-24T13:21:43.026Z,1008.10
2023-03-24T13:31:43.276Z,1008.34
2023-03-24T13:41:44.431Z,1008.38
2023-03-24T13:51:43.615Z,1008.25
2023-03-24T14:01:43.858Z,1008.27
2023-03-24T14:11:44.135Z,1008.37
2023-03-24T14:21:44.124Z,1008.39
2023-03-24T14:31:44.384Z,1008.49
2023-03-24T14:41:44.594Z,1008.40
2023-03-24T14:51:44.794Z,1008.61
2023-03-24T15:01:45.041Z,1008.64
2023-03-24T15:11:45.245Z,1008.75
2023-03-24T15:21:45.444Z,1008.80
2023-03-24T15:31:45.728Z,1008.80
2023-03-24T15:41:45.856Z,1008.87
2023-03-24T15:51:46.046Z,1008.76
2023-03-24T16:01:46.262Z,1008.42
2023-03-24T16:11:46.423Z,1008.56
2023-03-24T16:21:46.674Z,1008.84
2023-03-24T16:31:46.712Z,1008.86
2023-03-24T16:41:46.910Z,1008.74
2023-03-24T16:51:47.160Z,1008.60
2023-03-24T17:01:47.384Z,1008.52
2023-03-24T17:11:47.424Z,1008.65
2023-03-24T17:21:47.769Z,1008.78
2023-03-24T17:31:47.843Z,1008.73
2023-03-24T17:41:48.265Z,1008.85
2023-03-24T17:51:48.422Z,1008.86
2023-03-24T18:01:48.489Z,1008.78
2023-03-24T18:11:48.752Z,1009.05
2023-03-24T18:21:48.676Z,1009.21
2023-03-24T18:31:48.827Z,1009.42
2023-03-24T18:41:48.793Z,1009.61
2023-03-24T18:51:49.181Z,1010.01
2023-03-24T19:01:49.409Z,1010.05
2023-03-24T19:11:49.539Z,1009.99
2023-03-24T19:21:49.387Z,1009.63
2023-03-24T19:31:49.867Z,1009.50
2023-03-24T19:41:49.793Z,1009.45
2023-03-24T19:51:50.207Z,1009.75
2023-03-24T20:01:50.086Z,1009.94
2023-03-24T20:11:50.548Z,1009.99
2023-03-24T20:21:50.719Z,1009.94
2023-03-24T20:31:50.925Z,1010.03
2023-03-24T20:41:51.065Z,1010.23
2023-03-24T20:51:50.932Z,1010.22
2023-03-24T21:01:51.134Z,1010.18
2023-03-24T21:11:51.576Z,1010.16
2023-03-24T21:21:51.747Z,1010.16
2023-03-24T21:31:51.842Z,1010.21
2023-03-24T21:41:51.912Z,1010.20
2023-03-24T21:51:52.086Z,1010.55
2023-03-24T22:01:52.417Z,1010.65
2023-03-24T22:11:52.379Z,1010.59
2023-03-24T22:21:52.567Z,1010.59
2023-03-24T22:31:52.863Z,1010.75
2023-03-24T22:41:52.982Z,1010.53
2023-03-24T22:51:53.322Z,1010.49
2023-03-24T23:02:05.992Z,1010.55
2023-03-24T23:11:54.564Z,1010.46
2023-03-24T23:21:53.770Z,1010.72
2023-03-24T23:31:54.036Z,1010.46
2023-03-24T23:41:54.188Z,1010.42
2023-03-24T23:51:54.395Z,1010.44
